Time;durP1;ratioP1;P1;durP2;ratioP2;P2;SDS_P1;SDS_P2;PMS_P1;PMS_P2;Temp;Humidity;BMP_temperature;BMP_pressure;BME280_temperature;BME280_humidity;BME280_pressure;Samples;Min_cycle;Max_cycle;Signal;HPM_P1;HPM_P2
2022/04/28 00:00:11;;;;;;;15.18;4.45;;;7.90;99.90;;;;;;4941590;28;152621;-72
2022/04/28 00:02:38;;;;;;;13.60;4.30;;;7.80;99.90;;;;;;4952766;28;20050;-74
2022/04/28 00:05:06;;;;;;;15.05;4.78;;;7.90;99.90;;;;;;4922710;28;150935;-72
2022/04/28 00:07:33;;;;;;;15.85;4.70;;;7.90;99.90;;;;;;4959454;28;20497;-72
2022/04/28 00:09:59;;;;;;;14.38;4.40;;;7.90;99.90;;;;;;4935272;28;241843;-72
2022/04/28 00:12:27;;;;;;;13.93;4.68;;;7.90;99.90;;;;;;4956406;28;20062;-72
2022/04/28 00:14:53;;;;;;;13.95;4.65;;;7.90;99.90;;;;;;4938857;28;149625;-72
2022/04/28 00:17:19;;;;;;;13.80;4.00;;;7.90;99.90;;;;;;4978436;28;20397;-72
2022/04/28 00:19:45;;;;;;;18.08;4.93;;;7.90;99.90;;;;;;4941689;28;103143;-75
2022/04/28 00:22:13;;;;;;;14.32;4.70;;;7.90;99.90;;;;;;4972730;28;20588;-72
2022/04/28 00:24:39;;;;;;;13.90;4.10;;;7.90;99.90;;;;;;4928055;28;55104;-73
2022/04/28 00:27:06;;;;;;;13.15;4.28;;;8.00;99.90;;;;;;4966816;28;20045;-72
2022/04/28 00:29:32;;;;;;;16.00;4.55;;;8.00;99.90;;;;;;4937750;28;180399;-72
2022/04/28 00:31:58;;;;;;;13.30;4.10;;;8.00;99.90;;;;;;4964241;28;20055;-72
2022/04/28 00:34:24;;;;;;;11.93;4.28;;;8.00;99.90;;;;;;4930558;28;53154;-72
2022/04/28 00:36:50;;;;;;;18.15;4.65;;;8.00;99.90;;;;;;4963806;28;20094;-72
2022/04/28 00:39:17;;;;;;;14.90;4.53;;;8.10;99.90;;;;;;4915383;28;20061;-72
2022/04/28 00:41:43;;;;;;;13.80;4.55;;;8.10;99.90;;;;;;4981284;28;20053;-72
2022/04/28 00:44:11;;;;;;;13.85;4.10;;;8.10;99.90;;;;;;4927954;28;55693;-72
2022/04/28 00:46:38;;;;;;;12.10;4.28;;;8.00;99.90;;;;;;4961061;28;20050;-73
2022/04/28 00:51:50;;;;;;;16.10;4.72;;;8.10;99.90;;;;;;4959739;28;20420;-74
2022/04/28 00:54:17;;;;;;;15.95;4.30;;;8.10;99.90;;;;;;4932798;28;38816;-72
2022/04/28 00:56:43;;;;;;;12.13;3.90;;;8.10;99.90;;;;;;4961382;28;20325;-72
2022/04/28 00:59:11;;;;;;;18.73;4.40;;;8.10;99.90;;;;;;4932686;28;69229;-72
2022/04/28 01:01:37;;;;;;;15.68;4.60;;;8.10;99.90;;;;;;4959791;28;20066;-72
2022/04/28 01:04:04;;;;;;;14.18;4.30;;;8.10;99.90;;;;;;4905180;28;171772;-72
2022/04/28 01:06:30;;;;;;;14.00;4.32;;;8.10;99.90;;;;;;4956947;28;20051;-73
2022/04/28 01:08:57;;;;;;;15.70;4.85;;;8.00;99.90;;;;;;4933984;28;207851;-72
2022/04/28 01:11:25;;;;;;;13.23;4.38;;;8.10;99.90;;;;;;4966411;28;20050;-72
2022/04/28 01:13:51;;;;;;;17.65;4.30;;;8.00;99.90;;;;;;4930227;28;20054;-73
2022/04/28 01:16:18;;;;;;;16.50;4.13;;;8.00;99.90;;;;;;4940462;28;162569;-72
2022/04/28 01:18:44;;;;;;;19.00;4.32;;;8.00;99.90;;;;;;4956956;28;20049;-72
2022/04/28 01:21:10;;;;;;;13.93;4.18;;;8.00;99.90;;;;;;4934895;28;192717;-73
2022/04/28 01:23:37;;;;;;;14.60;4.05;;;8.00;99.90;;;;;;4940470;28;20038;-73
2022/04/28 01:26:03;;;;;;;18.30;4.03;;;8.00;99.90;;;;;;4955925;28;20062;-72
2022/04/28 01:28:31;;;;;;;16.08;4.50;;;8.00;99.90;;;;;;4938070;28;20054;-73
2022/04/28 01:31:03;;;;;;;16.10;3.85;;;8.00;99.90;;;;;;4953416;28;146494;-72
2022/04/28 01:33:29;;;;;;;15.18;3.50;;;8.00;99.90;;;;;;4935030;28;20062;-73
2022/04/28 01:35:55;;;;;;;14.05;3.30;;;8.00;99.90;;;;;;4965533;28;213510;-72
2022/04/28 01:38:21;;;;;;;13.02;3.40;;;8.00;99.90;;;;;;4957300;28;20054;-72
2022/04/28 01:40:48;;;;;;;12.95;3.20;;;8.00;99.90;;;;;;4948967;28;208199;-71
2022/04/28 01:43:14;;;;;;;12.63;3.63;;;7.90;99.90;;;;;;4969261;28;20045;-68
2022/04/28 01:45:40;;;;;;;13.73;3.78;;;7.90;99.90;;;;;;4928528;28;83792;-72
2022/04/28 01:48:06;;;;;;;14.13;4.22;;;7.90;99.90;;;;;;4984781;28;20046;-71
2022/04/28 01:50:32;;;;;;;14.90;3.72;;;7.90;99.90;;;;;;4916396;28;149115;-71
2022/04/28 01:55:43;;;;;;;13.85;3.90;;;8.00;99.90;;;;;;4935412;28;225313;-72
2022/04/28 01:58:10;;;;;;;15.40;3.78;;;7.90;99.90;;;;;;4970238;28;20507;-71
2022/04/28 02:00:36;;;;;;;11.70;3.33;;;8.00;99.90;;;;;;4944140;28;20065;-72
2022/04/28 02:03:02;;;;;;;17.25;3.78;;;8.00;99.90;;;;;;4967071;28;20109;-74
2022/04/28 02:05:28;;;;;;;12.43;3.40;;;8.00;99.90;;;;;;4924727;28;177534;-71
2022/04/28 02:07:54;;;;;;;13.10;3.88;;;8.00;99.90;;;;;;4972531;28;20047;-72
2022/04/28 02:10:20;;;;;;;13.05;3.58;;;8.10;99.90;;;;;;4944351;28;30204;-72
2022/04/28 02:12:46;;;;;;;16.67;3.80;;;8.00;99.90;;;;;;4955813;28;20059;-72
2022/04/28 02:15:12;;;;;;;18.67;3.70;;;8.00;99.90;;;;;;4923193;28;183375;-72
2022/04/28 02:17:40;;;;;;;14.82;3.30;;;8.00;99.90;;;;;;4961612;28;20144;-71
2022/04/28 02:20:11;;;;;;;14.05;3.42;;;8.00;99.90;;;;;;4912249;28;49727;-72
2022/04/28 02:22:37;;;;;;;11.45;3.10;;;8.00;99.90;;;;;;4959124;28;20050;-72
2022/04/28 02:25:04;;;;;;;14.20;3.65;;;8.00;99.90;;;;;;4980461;23;218452;-74
2022/04/28 02:27:31;;;;;;;13.02;3.28;;;8.00;99.90;;;;;;5029809;28;20166;-74
2022/04/28 02:29:57;;;;;;;13.40;3.40;;;8.00;99.90;;;;;;4992774;28;232096;-73
2022/04/28 02:32:23;;;;;;;16.27;3.65;;;8.00;99.90;;;;;;5029368;28;20056;-74
2022/04/28 02:34:49;;;;;;;11.88;2.83;;;8.00;99.90;;;;;;4995171;28;27432;-74
2022/04/28 02:37:16;;;;;;;15.48;3.45;;;8.00;99.90;;;;;;5027719;28;20061;-74
2022/04/28 02:39:42;;;;;;;11.82;3.30;;;8.10;99.90;;;;;;4977818;28;42560;-74
2022/04/28 02:42:08;;;;;;;16.33;3.42;;;8.00;99.90;;;;;;5003387;28;20030;-75
2022/04/28 02:44:35;;;;;;;15.25;3.80;;;8.00;99.90;;;;;;4969787;28;240387;-74
2022/04/28 02:47:01;;;;;;;13.98;3.30;;;8.00;99.90;;;;;;5019608;28;20057;-74
2022/04/28 02:49:27;;;;;;;14.25;3.67;;;8.00;99.90;;;;;;4983014;28;244189;-74
2022/04/28 02:51:53;;;;;;;14.57;3.80;;;8.00;99.90;;;;;;5011010;28;20056;-74
2022/04/28 02:54:20;;;;;;;17.30;4.13;;;8.00;99.90;;;;;;4959628;28;170672;-73
2022/04/28 02:56:46;;;;;;;14.10;3.83;;;8.00;99.90;;;;;;5002356;28;20056;-74
2022/04/28 02:59:12;;;;;;;14.85;3.60;;;8.00;99.90;;;;;;4979115;28;88917;-75
2022/04/28 03:01:38;;;;;;;15.23;3.80;;;8.10;99.90;;;;;;5009056;28;20034;-75
2022/04/28 03:04:05;;;;;;;13.63;3.60;;;8.00;99.90;;;;;;4951559;28;251981;-75
2022/04/28 03:12:00;;;;;;;16.20;4.00;;;8.10;99.90;;;;;;5008243;28;20077;-74
2022/04/28 03:14:26;;;;;;;14.13;3.50;;;8.10;99.90;;;;;;4971528;28;242687;-75
2022/04/28 03:16:52;;;;;;;12.70;3.70;;;8.10;99.90;;;;;;5002420;28;20058;-75
2022/04/28 03:19:18;;;;;;;14.40;3.70;;;8.10;99.90;;;;;;4967028;28;190210;-74
2022/04/28 03:21:45;;;;;;;14.60;3.80;;;8.10;99.90;;;;;;5021352;28;20075;-74
2022/04/28 03:24:11;;;;;;;14.48;3.67;;;8.10;99.90;;;;;;4979836;28;24920;-75
2022/04/28 03:26:39;;;;;;;14.23;2.85;;;8.00;99.90;;;;;;4998079;28;20065;-75
2022/04/28 03:29:05;;;;;;;14.73;3.25;;;8.00;99.90;;;;;;4975750;28;232772;-75
2022/04/28 03:31:31;;;;;;;13.48;3.55;;;8.10;99.90;;;;;;5023828;28;20077;-75
2022/04/28 03:33:57;;;;;;;12.93;3.30;;;8.00;99.90;;;;;;4973746;28;219452;-75
2022/04/28 03:39:08;;;;;;;11.65;3.28;;;8.10;99.90;;;;;;4967402;28;252729;-75
2022/04/28 03:41:34;;;;;;;19.05;3.75;;;8.00;99.90;;;;;;5008018;28;20146;-74
2022/04/28 03:44:01;;;;;;;11.57;3.10;;;8.00;99.90;;;;;;4975394;28;22081;-74
2022/04/28 03:46:27;;;;;;;10.23;3.13;;;8.00;99.90;;;;;;5003254;28;20050;-73
2022/04/28 03:48:53;;;;;;;16.65;3.63;;;8.10;99.90;;;;;;4982635;28;94170;-74
2022/04/28 03:51:19;;;;;;;14.70;3.95;;;8.10;99.90;;;;;;4990773;28;20114;-74
2022/04/28 03:53:45;;;;;;;13.70;3.42;;;8.00;99.90;;;;;;4989432;28;20049;-73
2022/04/28 03:56:11;;;;;;;10.68;3.53;;;8.10;99.90;;;;;;5008943;28;42683;-74
2022/04/28 03:58:37;;;;;;;15.90;3.90;;;7.90;99.90;;;;;;4987360;28;20113;-74
2022/04/28 04:01:04;;;;;;;17.63;3.70;;;7.90;99.90;;;;;;5006843;28;212910;-75
2022/04/28 04:03:30;;;;;;;17.23;3.63;;;7.90;99.90;;;;;;4986741;28;20139;-75
2022/04/28 04:05:56;;;;;;;13.40;3.15;;;8.00;99.90;;;;;;5000759;28;215250;-74
2022/04/28 04:08:23;;;;;;;8.95;2.42;;;8.00;99.90;;;;;;4984958;28;20054;-74
2022/04/28 04:10:49;;;;;;;13.60;3.40;;;8.00;99.90;;;;;;5020050;28;115610;-74
2022/04/28 04:13:15;;;;;;;16.45;4.00;;;8.00;99.90;;;;;;5005297;28;20038;-73
2022/04/28 04:15:42;;;;;;;14.15;3.33;;;8.10;99.90;;;;;;5004634;28;185739;-74
2022/04/28 04:18:08;;;;;;;13.57;3.40;;;8.00;99.90;;;;;;5013248;28;20064;-75
2022/04/28 04:20:34;;;;;;;11.98;3.38;;;8.00;99.90;;;;;;4982282;28;230319;-75
2022/04/28 04:23:04;;;;;;;14.73;3.58;;;8.00;99.90;;;;;;5011748;28;20062;-76
2022/04/28 04:25:30;;;;;;;14.10;3.85;;;8.00;99.90;;;;;;4986077;28;27348;-75
2022/04/28 04:27:56;;;;;;;13.52;3.55;;;8.00;99.90;;;;;;5011963;28;20064;-75
2022/04/28 04:33:06;;;;;;;13.23;3.65;;;8.00;99.90;;;;;;5018982;28;20049;-75
2022/04/28 04:35:32;;;;;;;14.10;4.13;;;8.10;99.90;;;;;;4974683;28;148425;-74
2022/04/28 04:37:58;;;;;;;14.98;3.60;;;8.00;99.90;;;;;;5006225;28;20046;-74
2022/04/28 04:40:25;;;;;;;13.73;4.22;;;8.00;99.90;;;;;;4985478;28;61281;-74
2022/04/28 04:42:51;;;;;;;13.07;3.92;;;8.00;99.90;;;;;;5037095;28;20058;-75
2022/04/28 04:45:17;;;;;;;15.68;3.90;;;8.00;99.90;;;;;;4985331;28;33316;-75
2022/04/28 04:47:43;;;;;;;13.50;3.80;;;8.00;99.90;;;;;;5016176;28;20044;-75
2022/04/28 04:50:09;;;;;;;15.30;3.72;;;8.10;99.90;;;;;;4973800;28;164674;-75
2022/04/28 04:52:36;;;;;;;11.02;3.42;;;8.10;99.90;;;;;;5011172;28;20060;-75
2022/04/28 04:55:03;;;;;;;15.55;3.72;;;8.10;99.90;;;;;;4966045;28;75899;-75
2022/04/28 04:57:29;;;;;;;13.10;3.70;;;8.10;99.90;;;;;;4988962;28;20054;-74
2022/04/28 04:59:55;;;;;;;17.13;4.30;;;8.10;99.90;;;;;;4978722;28;118917;-75
2022/04/28 05:02:23;;;;;;;14.82;4.03;;;8.10;99.90;;;;;;5003644;28;20046;-74
2022/04/28 05:04:50;;;;;;;12.57;3.45;;;8.20;99.90;;;;;;4964890;28;181793;-75
2022/04/28 05:07:17;;;;;;;12.73;3.92;;;8.20;99.90;;;;;;5013048;28;20042;-75
2022/04/28 05:09:43;;;;;;;19.85;4.45;;;8.30;99.90;;;;;;4974097;28;167209;-75
2022/04/28 05:12:09;;;;;;;15.95;3.85;;;8.30;99.90;;;;;;5009676;28;20054;-75
2022/04/28 05:14:38;;;;;;;14.15;4.10;;;8.40;99.90;;;;;;4981749;28;135641;-74
2022/04/28 05:17:05;;;;;;;15.05;3.90;;;8.40;99.90;;;;;;5020396;28;20057;-76
2022/04/28 05:19:31;;;;;;;12.50;3.50;;;8.40;99.90;;;;;;4980733;28;123111;-74
2022/04/28 05:21:57;;;;;;;13.48;4.07;;;8.40;99.90;;;;;;4992922;28;20046;-75
2022/04/28 05:24:23;;;;;;;16.38;3.92;;;8.50;99.90;;;;;;4976800;28;99556;-75
2022/04/28 05:26:49;;;;;;;16.40;4.07;;;8.50;99.90;;;;;;5016835;28;20038;-74
2022/04/28 05:29:16;;;;;;;16.45;4.32;;;8.50;99.90;;;;;;4979423;28;150577;-74
2022/04/28 05:31:42;;;;;;;12.35;3.72;;;8.50;99.90;;;;;;5022863;28;20038;-74
2022/04/28 05:34:08;;;;;;;15.40;4.37;;;8.50;99.90;;;;;;4963841;28;231431;-74
2022/04/28 05:36:36;;;;;;;14.18;4.10;;;8.60;99.90;;;;;;4999130;28;20080;-73
2022/04/28 05:39:02;;;;;;;16.88;4.07;;;8.60;99.90;;;;;;4983358;28;31791;-74
2022/04/28 05:41:29;;;;;;;13.65;3.50;;;8.70;99.90;;;;;;5025541;28;20066;-74
2022/04/28 05:46:40;;;;;;;16.67;4.65;;;8.60;99.90;;;;;;5018194;28;20244;-74
2022/04/28 05:49:07;;;;;;;15.70;4.55;;;8.70;99.90;;;;;;4967446;28;153793;-74
2022/04/28 05:51:34;;;;;;;14.23;4.63;;;8.70;99.90;;;;;;5009092;28;20046;-73
2022/04/28 05:54:00;;;;;;;18.25;4.45;;;8.80;99.90;;;;;;4969415;28;186294;-74
2022/04/28 05:56:26;;;;;;;16.17;4.70;;;8.70;99.90;;;;;;5024210;28;20065;-72
2022/04/28 05:58:53;;;;;;;17.73;4.47;;;8.70;99.90;;;;;;4988040;28;20060;-73
2022/04/28 06:01:20;;;;;;;23.60;4.72;;;8.80;99.90;;;;;;4988184;28;20042;-73
2022/04/28 06:03:46;;;;;;;16.23;4.50;;;8.80;99.90;;;;;;4962342;28;20058;-73
2022/04/28 06:06:12;;;;;;;18.45;4.97;;;8.80;99.90;;;;;;4973000;28;139662;-72
2022/04/28 06:08:41;;;;;;;19.23;4.60;;;8.80;99.90;;;;;;4983905;28;20047;-74
2022/04/28 06:11:07;;;;;;;19.70;4.50;;;8.90;99.90;;;;;;5002843;28;194953;-74
2022/04/28 06:13:34;;;;;;;13.80;3.95;;;8.90;99.90;;;;;;4983408;28;20050;-74
2022/04/28 06:16:00;;;;;;;15.60;4.07;;;8.90;99.90;;;;;;4988554;28;63198;-74
2022/04/28 06:18:27;;;;;;;16.42;4.25;;;8.90;99.90;;;;;;4966581;28;20251;-74
2022/04/28 06:20:53;;;;;;;15.68;3.85;;;9.00;99.90;;;;;;4996297;28;182993;-75
2022/04/28 06:23:20;;;;;;;15.88;4.50;;;9.00;99.90;;;;;;5000111;28;20038;-74
2022/04/28 06:25:47;;;;;;;15.00;3.92;;;9.20;99.90;;;;;;4992655;28;254923;-74
2022/04/28 06:28:16;;;;;;;18.10;4.32;;;9.40;99.90;;;;;;5013582;28;20046;-75
2022/04/28 06:30:42;;;;;;;14.18;3.78;;;9.50;99.90;;;;;;4975727;28;67165;-75
2022/04/28 06:33:08;;;;;;;17.80;3.72;;;9.60;99.90;;;;;;5007314;28;20054;-74
2022/04/28 06:35:34;;;;;;;15.88;3.63;;;9.70;99.90;;;;;;4981509;28;81135;-75
2022/04/28 06:38:02;;;;;;;17.23;3.65;;;9.80;99.90;;;;;;5011237;28;20077;-74
2022/04/28 06:40:28;;;;;;;17.95;3.53;;;9.90;99.90;;;;;;4982389;28;87809;-73
2022/04/28 06:42:55;;;;;;;14.82;3.40;;;9.90;99.90;;;;;;5013283;28;20374;-74
2022/04/28 06:45:21;;;;;;;14.88;3.08;;;10.10;99.90;;;;;;4982873;28;53203;-73
2022/04/28 06:47:47;;;;;;;13.07;2.67;;;10.30;99.90;;;;;;5015163;28;20050;-74
2022/04/28 06:50:14;;;;;;;14.23;3.20;;;10.40;99.90;;;;;;4981151;28;147550;-74
2022/04/28 06:52:41;;;;;;;16.58;3.40;;;10.50;99.90;;;;;;5013664;28;20043;-74
2022/04/28 06:55:10;;;;;;;13.20;3.10;;;10.50;99.90;;;;;;4955332;28;84793;-74
2022/04/28 06:57:37;;;;;;;14.07;3.05;;;10.60;99.90;;;;;;5004294;28;20326;-73
2022/04/28 07:00:06;;;;;;;12.18;2.90;;;10.90;99.90;;;;;;4975856;28;91590;-74
2022/04/28 07:02:32;;;;;;;15.65;2.80;;;11.40;99.90;;;;;;5012332;28;20213;-75
2022/04/28 07:04:58;;;;;;;15.90;3.00;;;11.70;99.90;;;;;;4969750;28;148988;-73
2022/04/28 07:07:26;;;;;;;16.10;3.17;;;11.90;99.90;;;;;;5007397;28;20048;-74
2022/04/28 07:09:54;;;;;;;12.80;3.05;;;12.00;99.90;;;;;;4980868;28;247286;-74
2022/04/28 07:12:20;;;;;;;14.23;3.25;;;12.00;99.90;;;;;;5013174;28;20053;-74
2022/04/28 07:14:46;;;;;;;14.25;3.00;;;11.90;99.90;;;;;;4981712;28;184201;-74
2022/04/28 07:17:13;;;;;;;15.15;2.72;;;11.80;99.90;;;;;;5023699;28;20050;-74
2022/04/28 07:19:39;;;;;;;11.60;2.80;;;11.70;99.90;;;;;;4991950;28;48740;-73
2022/04/28 07:22:05;;;;;;;16.02;2.90;;;11.70;99.90;;;;;;5029672;28;20059;-73
2022/04/28 07:24:35;;;;;;;19.23;2.92;;;11.50;99.90;;;;;;4970060;28;69745;-74
2022/04/28 07:27:02;;;;;;;14.80;3.10;;;11.40;99.90;;;;;;4991483;28;20078;-72
2022/04/28 07:29:28;;;;;;;17.40;2.83;;;11.20;99.90;;;;;;4973955;28;147001;-73
2022/04/28 07:31:55;;;;;;;14.40;2.90;;;11.10;99.90;;;;;;5015816;28;20046;-75
2022/04/28 07:34:23;;;;;;;14.52;3.10;;;11.10;99.90;;;;;;4974421;28;103239;-73
2022/04/28 07:36:52;;;;;;;16.95;3.40;;;11.40;99.90;;;;;;5023332;28;20050;-73
2022/04/28 07:39:18;;;;;;;12.73;2.70;;;12.10;99.90;;;;;;4950859;28;50917;-73
2022/04/28 07:41:45;;;;;;;11.02;2.38;;;12.80;99.90;;;;;;5010254;28;20042;-74
2022/04/28 07:44:11;;;;;;;11.52;2.50;;;12.80;99.90;;;;;;4956350;28;73406;-73
2022/04/28 07:46:38;;;;;;;13.48;2.83;;;12.60;99.90;;;;;;5013950;28;20036;-73
2022/04/28 07:49:04;;;;;;;10.57;2.80;;;12.20;99.90;;;;;;4966083;28;279216;-73
2022/04/28 07:51:30;;;;;;;12.18;2.35;;;11.90;99.90;;;;;;5011968;28;20054;-73
2022/04/28 07:53:56;;;;;;;12.60;2.70;;;11.90;99.90;;;;;;4969643;28;85364;-73
2022/04/28 07:56:22;;;;;;;9.63;2.40;;;11.90;99.90;;;;;;5011884;28;20050;-74
2022/04/28 07:58:49;;;;;;;10.98;2.40;;;11.90;99.90;;;;;;4973061;28;20148;-72
2022/04/28 08:01:15;;;;;;;13.15;2.53;;;12.00;99.90;;;;;;4983211;28;225250;-72
2022/04/28 08:03:41;;;;;;;9.13;2.40;;;12.00;99.90;;;;;;4956780;28;20049;-72
2022/04/28 08:06:11;;;;;;;13.13;2.60;;;12.10;99.90;;;;;;4960109;28;158834;-71
2022/04/28 08:08:37;;;;;;;11.80;2.67;;;12.10;99.90;;;;;;4975803;28;20134;-72
2022/04/28 08:11:03;;;;;;;11.73;2.60;;;12.10;99.90;;;;;;4991930;28;55331;-72
2022/04/28 08:13:29;;;;;;;12.20;2.55;;;12.10;99.90;;;;;;4964223;28;20061;-72
2022/04/28 08:15:57;;;;;;;13.65;2.42;;;12.10;99.90;;;;;;4967816;28;140946;-71
2022/04/28 08:18:30;;;;;;;11.25;2.47;;;12.00;99.90;;;;;;4957255;28;20439;-71
2022/04/28 08:20:56;;;;;;;11.95;2.08;;;12.20;99.90;;;;;;4974543;28;73367;-71
2022/04/28 08:23:22;;;;;;;8.52;1.73;;;12.30;99.90;;;;;;4960936;28;20072;-71
2022/04/28 08:25:48;;;;;;;12.52;2.20;;;12.20;99.10;;;;;;4989769;23;195948;-81
2022/04/28 08:28:22;;;;;;;10.18;2.17;;;12.40;99.50;;;;;;5012829;28;20045;-82
2022/04/28 08:30:48;;;;;;;10.27;1.92;;;12.60;99.00;;;;;;4962269;28;91951;-81
2022/04/28 08:33:15;;;;;;;11.27;2.05;;;12.60;98.60;;;;;;5013313;28;20053;-82
2022/04/28 08:35:42;;;;;;;10.82;2.03;;;12.60;98.20;;;;;;4973995;28;146882;-82
2022/04/28 08:38:08;;;;;;;11.98;2.08;;;12.90;98.10;;;;;;5001726;23;20054;-73
2022/04/28 08:40:35;;;;;;;10.93;2.40;;;13.30;98.50;;;;;;4954600;28;239046;-73
2022/04/28 08:43:05;;;;;;;11.90;2.17;;;13.40;97.80;;;;;;5002879;28;20054;-73
2022/04/28 08:45:39;;;;;;;16.10;2.30;;;13.30;97.50;;;;;;4957984;28;166487;-73
2022/04/28 08:48:07;;;;;;;11.27;2.20;;;13.20;98.00;;;;;;5007414;28;20051;-73
2022/04/28 08:50:35;;;;;;;12.00;2.30;;;13.30;98.20;;;;;;4960673;28;61441;-73
2022/04/28 08:53:03;;;;;;;13.38;2.30;;;13.60;98.00;;;;;;4988802;28;20054;-74
2022/04/28 08:55:29;;;;;;;12.20;2.15;;;13.70;98.00;;;;;;4938713;28;145525;-73
2022/04/28 08:57:56;;;;;;;10.50;2.20;;;13.70;97.40;;;;;;4963560;28;20055;-74
2022/04/28 09:00:22;;;;;;;11.65;2.20;;;13.70;97.10;;;;;;4944624;28;56249;-75
2022/04/28 09:02:48;;;;;;;10.00;2.40;;;14.00;98.00;;;;;;4968795;28;20058;-73
2022/04/28 09:05:18;;;;;;;13.82;2.28;;;14.70;97.10;;;;;;4895964;28;182525;-72
2022/04/28 09:07:46;;;;;;;12.43;2.20;;;15.30;95.90;;;;;;4997573;28;20038;-74
2022/04/28 09:10:32;;;;;;;10.13;2.15;;;15.70;96.50;;;;;;4962518;28;133259;-74
2022/04/28 09:15:50;;;;;;;12.07;2.33;;;15.40;92.70;;;;;;4937697;28;192441;-75
2022/04/28 09:18:21;;;;;;;12.32;2.47;;;15.60;94.00;;;;;;4970926;28;20076;-70
2022/04/28 09:20:49;;;;;;;;;;;15.90;93.90;;;;;;4935359;28;198284;-73
2022/04/28 09:23:15;;;;;;;11.45;2.10;;;15.70;91.60;;;;;;4990257;28;20286;-72
2022/04/28 09:25:42;;;;;;;11.98;2.20;;;15.30;94.30;;;;;;4934179;28;228547;-74
2022/04/28 09:28:10;;;;;;;9.20;2.00;;;15.20;93.70;;;;;;4986927;28;20061;-70
2022/04/28 09:30:47;;;;;;;12.90;1.90;;;15.00;93.10;;;;;;4963881;28;54817;-74
2022/04/28 09:33:18;;;;;;;13.32;2.40;;;15.10;94.10;;;;;;4985148;28;20058;-72
2022/04/28 09:35:53;;;;;;;16.05;2.42;;;14.80;92.60;;;;;;4906214;28;193421;-70
2022/04/28 09:38:20;;;;;;;12.35;2.13;;;14.70;93.00;;;;;;4971811;28;20050;-71
2022/04/28 09:43:33;;;;;;;10.93;2.13;;;14.70;93.30;;;;;;4957035;28;20055;-71
2022/04/28 09:46:01;;;;;;;13.50;2.38;;;14.80;93.90;;;;;;4982008;28;101773;-71
2022/04/28 09:48:29;;;;;;;11.73;1.90;;;14.90;93.90;;;;;;4959890;28;20145;-71
2022/04/28 09:51:11;;;;;;;12.43;2.30;;;14.90;93.40;;;;;;4953318;28;252546;-72
2022/04/28 09:53:56;;;;;;;12.73;2.20;;;15.10;93.10;;;;;;4955180;28;20390;-70
2022/04/28 09:56:28;;;;;;;11.35;1.98;;;15.10;93.30;;;;;;4977797;28;20042;-73
2022/04/28 09:58:55;;;;;;;14.40;2.42;;;15.10;93.00;;;;;;4961262;28;54712;-71
2022/04/28 10:01:22;;;;;;;11.05;2.13;;;15.00;92.50;;;;;;4982477;28;20270;-70
2022/04/28 10:03:48;;;;;;;12.00;2.30;;;14.70;92.80;;;;;;4953054;28;20050;-71
2022/04/28 10:06:16;;;;;;;15.00;2.58;;;14.70;93.20;;;;;;4953974;28;241342;-71
2022/04/28 10:08:44;;;;;;;13.10;2.22;;;14.60;93.50;;;;;;4954289;28;20038;-70
2022/04/28 10:11:17;;;;;;;17.25;2.50;;;14.50;93.20;;;;;;4962868;28;246336;-70
2022/04/28 10:13:46;;;;;;;14.35;2.90;;;14.40;94.00;;;;;;4949793;28;20061;-71
2022/04/28 10:16:15;;;;;;;13.25;2.90;;;14.40;94.10;;;;;;4955343;28;189172;-71
2022/04/28 10:18:49;;;;;;;14.70;3.30;;;14.50;94.20;;;;;;4954401;28;20076;-71
2022/04/28 10:21:22;;;;;;;12.20;2.83;;;14.50;94.10;;;;;;4953359;28;122505;-71
2022/04/28 10:32:55;;;;;;;13.73;3.53;;;14.10;95.00;;;;;;4986777;28;20054;-72
2022/04/28 10:35:41;;;;;;;14.70;3.35;;;14.10;94.80;;;;;;4928032;28;137404;-71
2022/04/28 10:38:30;;;;;;;13.23;2.85;;;13.90;94.40;;;;;;4975084;28;20065;-71
2022/04/28 10:41:02;;;;;;;15.70;4.07;;;14.20;94.90;;;;;;4887480;28;198856;-71
2022/04/28 10:43:34;;;;;;;16.13;3.28;;;14.20;95.40;;;;;;4954907;28;20062;-71
2022/04/28 10:46:22;;;;;;;17.50;3.58;;;14.30;95.40;;;;;;4951251;28;185085;-71
2022/04/28 10:48:53;;;;;;;15.18;3.67;;;14.00;95.50;;;;;;4941833;28;20042;-70
2022/04/28 10:51:20;;;;;;;14.95;3.58;;;13.80;96.20;;;;;;4960376;28;20042;-71
2022/04/28 10:54:06;;;;;;;11.85;3.00;;;14.00;96.30;;;;;;4950738;28;20051;-70
2022/04/28 10:56:45;;;;;;;15.20;3.17;;;14.20;96.10;;;;;;4926727;28;20313;-71
2022/04/28 10:59:27;;;;;;;16.65;3.13;;;14.30;95.90;;;;;;4936260;28;126646;-71
2022/04/28 11:01:55;;;;;;;15.70;3.00;;;14.00;96.20;;;;;;4971547;28;20046;-71
2022/04/28 11:04:27;;;;;;;12.35;3.13;;;13.90;96.30;;;;;;4920701;28;103543;-70
2022/04/28 11:06:58;;;;;;;12.85;3.05;;;14.00;96.50;;;;;;4958396;28;20446;-72
2022/04/28 11:10:00;;;;;;;;;;;14.00;96.10;;;;;;4927685;28;59500;-72
2022/04/28 11:12:37;;;;;;;17.20;3.40;;;14.10;96.10;;;;;;4923983;28;19918;-72
2022/04/28 11:15:10;;;;;;;14.90;3.00;;;13.70;96.30;;;;;;4875007;28;215734;-72
2022/04/28 11:17:38;;;;;;;17.05;3.35;;;13.70;96.60;;;;;;4894501;28;20070;-72
2022/04/28 11:20:13;;;;;;;17.40;3.35;;;13.60;96.40;;;;;;4870974;28;192868;-73
2022/04/28 11:22:43;;;;;;;15.50;3.42;;;13.70;97.10;;;;;;4927154;29;20107;-73
2022/04/28 11:25:12;;;;;;;15.95;3.13;;;14.00;96.30;;;;;;4862014;28;206279;-73
2022/04/28 11:27:39;;;;;;;13.43;3.00;;;13.90;96.50;;;;;;4952103;28;20055;-73
2022/04/28 11:30:09;;;;;;;15.45;3.30;;;14.00;96.70;;;;;;4895006;28;191013;-72
2022/04/28 11:32:51;;;;;;;14.93;2.92;;;13.80;96.50;;;;;;4948991;28;20183;-74
2022/04/28 11:35:18;;;;;;;;;;;13.80;96.60;;;;;;4910766;28;174836;-72
2022/04/28 11:38:00;;;;;;;14.40;3.13;;;13.90;96.60;;;;;;4921240;29;20279;-74
2022/04/28 11:40:30;;;;;;;12.90;3.05;;;13.90;96.60;;;;;;4898479;28;178374;-73
2022/04/28 11:42:57;;;;;;;14.98;3.28;;;14.00;96.70;;;;;;4933379;28;20064;-72
2022/04/28 11:45:25;;;;;;;18.42;3.30;;;14.20;96.40;;;;;;4894537;28;37249;-73
2022/04/28 11:47:53;;;;;;;13.00;2.67;;;14.10;96.30;;;;;;4987096;28;20063;-73
2022/04/28 11:50:22;;;;;;;16.55;3.10;;;14.00;96.40;;;;;;4921831;28;20038;-72
2022/04/28 11:53:03;;;;;;;12.73;3.00;;;14.00;96.30;;;;;;4971730;28;20051;-74
2022/04/28 11:55:33;;;;;;;14.75;2.90;;;14.10;96.40;;;;;;4945165;28;322488;-73
2022/04/28 11:58:00;;;;;;;15.07;3.28;;;14.20;96.10;;;;;;4955200;28;20051;-73
2022/04/28 12:00:27;;;;;;;12.05;2.85;;;14.30;95.90;;;;;;4943605;28;86659;-74
2022/04/28 12:02:55;;;;;;;13.63;2.92;;;14.20;95.90;;;;;;4964255;28;20050;-73
2022/04/28 12:05:25;;;;;;;15.60;3.15;;;14.20;95.90;;;;;;4912738;28;201986;-72
2022/04/28 12:07:54;;;;;;;15.93;2.88;;;14.10;95.90;;;;;;4987123;28;20050;-73
2022/04/28 12:16:09;;;;;;;13.48;2.72;;;13.90;96.10;;;;;;4871811;29;351036;-72
2022/04/28 12:21:38;;;;;;;13.48;2.85;;;13.80;96.40;;;;;;4927778;29;21240;-72
2022/04/28 12:24:12;;;;;;;15.45;3.03;;;14.00;96.40;;;;;;4891587;29;155858;-73
2022/04/28 12:26:43;;;;;;;16.75;3.00;;;14.10;96.10;;;;;;4937970;28;20055;-72
2022/04/28 12:29:11;;;;;;;11.90;2.58;;;14.20;96.40;;;;;;4888146;28;83938;-73
2022/04/28 12:31:38;;;;;;;15.05;2.92;;;14.30;96.10;;;;;;4909586;29;20048;-72
2022/04/28 12:34:11;;;;;;;12.27;2.80;;;14.30;96.10;;;;;;4876283;28;235461;-73
2022/04/28 12:37:04;;;;;;;12.88;2.78;;;14.50;95.80;;;;;;4907013;29;20043;-72
2022/04/28 12:39:31;;;;;;;11.80;2.55;;;14.40;95.30;;;;;;4898028;28;98810;-72
2022/04/28 12:41:58;;;;;;;13.18;2.72;;;14.20;95.80;;;;;;4939783;29;20185;-72
2022/04/28 12:44:25;;;;;;;12.82;2.42;;;14.60;95.80;;;;;;4914665;28;87633;-72
2022/04/28 12:46:55;;;;;;;14.25;2.80;;;14.70;95.10;;;;;;4960963;28;20051;-71
2022/04/28 12:49:23;;;;;;;12.85;2.92;;;14.80;95.30;;;;;;4928097;28;248918;-71
2022/04/28 12:52:03;;;;;;;14.38;2.70;;;14.90;95.30;;;;;;4974812;28;20365;-71
2022/04/28 12:54:36;;;;;;;13.57;2.67;;;14.90;94.60;;;;;;4942742;28;21780;-72
2022/04/28 12:57:04;;;;;;;16.65;2.88;;;14.90;94.70;;;;;;4954648;28;20392;-70
2022/04/28 12:59:36;;;;;;;16.90;3.20;;;14.90;94.60;;;;;;4933720;28;189636;-72
2022/04/28 13:02:03;;;;;;;11.00;2.38;;;14.70;94.70;;;;;;4982053;28;20089;-72
2022/04/28 13:04:34;;;;;;;10.95;2.55;;;14.90;94.60;;;;;;4925467;28;234001;-73
2022/04/28 13:07:01;;;;;;;11.35;2.50;;;14.80;94.80;;;;;;4956395;28;20382;-72
2022/04/28 13:09:29;;;;;;;12.60;2.78;;;14.90;94.90;;;;;;4934244;28;143501;-72
2022/04/28 13:11:56;;;;;;;11.70;2.88;;;14.80;94.80;;;;;;4984707;28;20161;-72
2022/04/28 13:14:23;;;;;;;13.02;2.85;;;15.00;94.90;;;;;;4928296;28;29477;-72
2022/04/28 13:16:52;;;;;;;13.20;2.80;;;15.20;94.70;;;;;;4971636;28;20055;-72
2022/04/28 13:19:19;;;;;;;12.32;2.53;;;15.20;94.50;;;;;;4915645;28;76835;-73
2022/04/28 13:21:46;;;;;;;15.35;2.90;;;15.30;94.40;;;;;;4952833;28;21338;-72
2022/04/28 13:24:12;;;;;;;15.73;2.90;;;15.10;94.30;;;;;;4928127;28;29115;-71
2022/04/28 13:26:39;;;;;;;13.30;2.80;;;15.20;94.30;;;;;;4933024;28;20430;-71